createdAt,value
2022-10-06T05:53:35.731Z,79.05
2022-10-06T05:56:39.198Z,79.39
2022-10-06T05:59:41.611Z,79.59
2022-10-06T06:02:43.447Z,79.00
2022-10-06T06:05:46.784Z,78.97
2022-10-06T06:08:53.269Z,78.68
2022-10-06T06:11:55.046Z,78.93
2022-10-06T06:15:20.095Z,79.41
2022-10-06T06:18:28.793Z,79.59
2022-10-06T06:21:32.409Z,79.55
2022-10-06T06:24:34.102Z,79.66
2022-10-06T06:27:35.816Z,79.24
2022-10-06T06:30:38.616Z,78.47
2022-10-06T06:33:41.809Z,78.26
2022-10-06T06:36:47.051Z,78.82
2022-10-06T06:39:51.097Z,78.38
2022-10-06T06:42:53.923Z,79.77
2022-10-06T06:46:17.230Z,79.97
2022-10-06T06:49:31.330Z,80.57
2022-10-06T06:52:37.798Z,80.55
2022-10-06T06:55:50.931Z,80.27
2022-10-06T06:58:54.294Z,79.78
2022-10-06T07:01:57.675Z,79.87
2022-10-06T07:05:00.934Z,79.08
2022-10-06T07:08:02.733Z,79.77
2022-10-06T07:11:23.589Z,78.80
2022-10-06T07:14:25.435Z,79.48
2022-10-06T07:17:46.646Z,79.17
2022-10-06T07:21:06.959Z,77.33
2022-10-06T07:24:27.936Z,76.74
2022-10-06T07:27:30.490Z,76.52
2022-10-06T07:30:34.143Z,75.58
2022-10-06T07:33:42.617Z,76.38
2022-10-06T07:36:46.464Z,73.98
2022-10-06T07:39:49.743Z,72.84
2022-10-06T07:42:52.388Z,73.57
2022-10-06T07:46:13.717Z,73.23
2022-10-06T07:49:21.712Z,71.24
2022-10-06T07:52:24.443Z,71.74
2022-10-06T07:55:27.113Z,70.23
2022-10-06T07:58:51.290Z,68.88
2022-10-06T08:01:54.890Z,68.92
2022-10-06T08:04:56.987Z,70.79
2022-10-06T08:07:58.903Z,70.34
2022-10-06T08:11:01.917Z,69.62
2022-10-06T08:14:03.744Z,68.52
2022-10-06T08:17:05.354Z,68.64
2022-10-06T08:20:10.364Z,66.96
2022-10-06T08:23:12.836Z,66.60
2022-10-06T08:26:16.413Z,65.98
2022-10-06T08:29:18.115Z,66.46
2022-10-06T08:32:20.746Z,66.69
2022-10-06T08:35:22.382Z,67.23
2022-10-06T08:38:24.056Z,68.84
2022-10-06T08:41:27.319Z,69.65
2022-10-06T08:44:41.700Z,70.58
2022-10-06T08:48:07.350Z,71.20
2022-10-06T08:51:22.774Z,71.08
2022-10-06T08:54:41.544Z,71.06
2022-10-06T09:01:18.796Z,69.51
2022-10-06T09:04:30.420Z,69.81
2022-10-06T09:07:58.335Z,71.10
2022-10-06T09:11:37.206Z,68.26
2022-10-06T09:14:45.529Z,70.43
2022-10-06T09:17:57.809Z,71.50
2022-10-06T09:21:06.589Z,71.25
2022-10-06T09:24:17.879Z,67.75
2022-10-06T09:27:33.814Z,68.26
2022-10-06T09:30:35.486Z,68.34
2022-10-06T09:33:40.078Z,65.82
2022-10-06T09:37:07.735Z,66.45
2022-10-06T09:40:35.589Z,66.97
2022-10-06T09:43:39.368Z,65.42
2022-10-06T09:46:41.877Z,64.18
2022-10-06T09:49:44.206Z,63.59
2022-10-06T09:52:58.250Z,65.07
2022-10-06T09:56:04.705Z,66.71
2022-10-06T09:59:19.402Z,65.89
2022-10-06T10:02:37.374Z,68.00
2022-10-06T10:05:47.121Z,67.97
2022-10-06T10:08:49.064Z,68.45
2022-10-06T10:12:21.048Z,67.98
2022-10-06T10:15:22.673Z,66.64
2022-10-06T10:18:27.770Z,67.79
2022-10-06T10:21:33.808Z,65.71
2022-10-06T10:24:51.411Z,63.87
2022-10-06T10:28:08.198Z,63.29
2022-10-06T10:31:49.518Z,60.72
2022-10-06T10:35:06.550Z,60.74
2022-10-06T10:38:19.965Z,61.96
2022-10-06T10:41:27.903Z,61.79
2022-10-06T10:44:35.415Z,62.30
2022-10-06T10:47:41.841Z,62.30
2022-10-06T10:51:25.239Z,64.68
2022-10-06T10:54:48.370Z,62.95
2022-10-06T10:57:51.415Z,61.85
2022-10-06T11:00:58.094Z,61.19
2022-10-06T11:04:00.990Z,60.75
2022-10-06T11:07:24.545Z,61.18
2022-10-06T11:10:30.360Z,62.65
2022-10-06T11:13:34.977Z,63.82
2022-10-06T11:16:55.286Z,63.59
2022-10-06T11:20:15.759Z,65.11
2022-10-06T11:23:55.655Z,63.08
2022-10-06T11:27:19.234Z,62.62
2022-10-06T11:30:36.460Z,63.84
2022-10-06T11:33:49.331Z,63.86
2022-10-06T11:37:18.502Z,64.37
2022-10-06T11:40:32.442Z,63.58
2022-10-06T11:43:51.551Z,64.64
2022-10-06T11:47:01.791Z,63.12
2022-10-06T11:50:35.550Z,63.77
2022-10-06T11:53:41.226Z,60.46
2022-10-06T11:56:42.964Z,62.09
2022-10-06T11:59:44.728Z,62.52
2022-10-06T12:02:47.157Z,63.45
2022-10-06T12:05:56.333Z,64.28
2022-10-06T12:08:58.721Z,62.19
2022-10-06T12:12:17.628Z,64.90
2022-10-06T12:19:07.561Z,64.29
2022-10-06T12:22:49.610Z,63.01
2022-10-06T12:26:17.356Z,62.59
2022-10-06T12:29:39.505Z,63.09
2022-10-06T12:32:54.264Z,64.20
2022-10-06T12:36:03.433Z,63.58
2022-10-06T12:39:22.204Z,62.80
2022-10-06T12:42:31.260Z,64.93
2022-10-06T12:45:33.580Z,63.72
2022-10-06T12:49:12.602Z,64.42
2022-10-06T12:52:35.007Z,64.82
2022-10-06T12:55:49.117Z,64.75
2022-10-06T12:58:51.472Z,64.50
2022-10-06T13:02:00.210Z,65.14
2022-10-06T13:05:12.408Z,65.57
2022-10-06T13:08:29.806Z,64.00
2022-10-06T13:11:32.177Z,64.67
2022-10-06T13:14:33.804Z,62.16
2022-10-06T13:17:41.964Z,61.71
2022-10-06T13:20:51.439Z,61.16
2022-10-06T13:23:53.295Z,59.22
2022-10-06T13:26:56.171Z,58.40
2022-10-06T13:30:18.358Z,56.57
2022-10-06T13:33:20.617Z,60.98
2022-10-06T13:36:23.598Z,59.56
2022-10-06T13:39:31.852Z,57.80
2022-10-06T13:42:34.897Z,61.88
2022-10-06T13:45:42.174Z,60.21
2022-10-06T13:48:47.717Z,58.17
2022-10-06T13:51:54.360Z,59.20
2022-10-06T13:54:58.058Z,59.22
2022-10-06T13:58:03.351Z,60.27
2022-10-06T14:01:08.686Z,58.03
2022-10-06T14:04:20.870Z,58.99
2022-10-06T14:07:22.539Z,60.05
2022-10-06T14:10:50.632Z,57.53
2022-10-06T14:14:02.405Z,61.28
2022-10-06T14:17:04.526Z,58.29
2022-10-06T14:20:42.783Z,56.19
2022-10-06T14:23:49.314Z,56.09
2022-10-06T14:26:50.953Z,57.54
2022-10-06T14:29:52.614Z,54.76
2022-10-06T14:32:54.218Z,55.15
2022-10-06T14:35:56.061Z,54.74
2022-10-06T14:38:59.467Z,54.16
2022-10-06T14:42:01.346Z,56.39
2022-10-06T14:45:03.471Z,55.12
2022-10-06T14:48:05.253Z,54.48
2022-10-06T14:51:07.758Z,53.82
2022-10-06T14:54:10.921Z,54.42
2022-10-06T14:57:13.366Z,53.72
2022-10-06T15:00:15.359Z,51.97
2022-10-06T15:03:17.020Z,53.41
2022-10-06T15:06:37.238Z,53.52
2022-10-06T15:09:39.059Z,54.21
2022-10-06T15:12:40.758Z,53.88
2022-10-06T15:15:42.442Z,54.57
2022-10-06T15:18:44.603Z,53.99
2022-10-06T15:21:46.482Z,53.43
2022-10-06T15:24:50.364Z,54.07
2022-10-06T15:28:10.869Z,55.12
2022-10-06T15:31:12.683Z,53.21
2022-10-06T15:34:15.000Z,52.62
2022-10-06T15:37:19.958Z,53.98
2022-10-06T15:40:21.551Z,55.31
2022-10-06T15:43:43.055Z,55.87
2022-10-06T15:46:49.116Z,55.98
2022-10-06T15:49:50.972Z,57.11
2022-10-06T15:52:52.663Z,58.55
2022-10-06T15:55:58.903Z,59.67
2022-10-06T15:59:00.575Z,58.32
2022-10-06T16:02:06.992Z,57.75
2022-10-06T16:05:09.063Z,58.13
2022-10-06T16:08:10.699Z,58.31
2022-10-06T16:11:12.315Z,58.30
2022-10-06T16:14:15.631Z,59.37
2022-10-06T16:17:18.589Z,60.04
2022-10-06T16:20:20.262Z,59.57
2022-10-06T16:23:22.939Z,60.57
2022-10-06T16:26:25.657Z,60.91
2022-10-06T16:29:28.325Z,61.62
2022-10-06T16:32:30.018Z,64.11
2022-10-06T16:35:31.771Z,65.07
2022-10-06T16:38:33.513Z,66.23
2022-10-06T16:41:35.199Z,65.79
2022-10-06T16:44:36.934Z,67.27
2022-10-06T16:47:38.581Z,68.78
2022-10-06T16:50:40.185Z,69.11
2022-10-06T16:53:47.678Z,68.62
2022-10-06T16:56:54.928Z,68.75
2022-10-06T16:59:56.554Z,69.78
2022-10-06T17:02:58.128Z,70.87
2022-10-06T17:06:11.546Z,70.78
2022-10-06T17:09:15.692Z,71.45
2022-10-06T17:12:17.277Z,71.37
2022-10-06T17:15:18.925Z,71.28
2022-10-06T17:18:21.271Z,71.40
2022-10-06T17:21:44.916Z,72.43
2022-10-06T17:24:45.747Z,73.57
2022-10-06T17:27:47.428Z,73.71
2022-10-06T17:30:53.111Z,74.75
2022-10-06T17:33:55.702Z,73.72
2022-10-06T17:36:57.334Z,73.22
2022-10-06T17:39:58.978Z,73.35
2022-10-06T17:43:00.648Z,72.47
2022-10-06T17:46:13.188Z,72.90
2022-10-06T17:49:17.194Z,73.24
2022-10-06T17:52:23.947Z,74.07
2022-10-06T17:55:27.897Z,73.71
2022-10-06T17:58:30.174Z,74.11
2022-10-06T18:01:33.608Z,74.02
2022-10-06T18:04:36.955Z,74.62
2022-10-06T18:07:38.572Z,74.52
2022-10-06T18:11:06.018Z,73.95
2022-10-06T18:14:18.036Z,73.23
2022-10-06T18:17:20.230Z,73.93
2022-10-06T18:20:21.905Z,74.21
2022-10-06T18:23:23.814Z,74.06
2022-10-06T18:26:25.445Z,74.03
2022-10-06T18:29:35.479Z,74.06
2022-10-06T18:36:15.390Z,74.55
2022-10-06T18:39:17.287Z,73.12
2022-10-06T18:42:19.336Z,72.93
2022-10-06T18:45:39.784Z,72.19
2022-10-06T18:48:58.373Z,71.76
2022-10-06T18:52:01.676Z,73.98
2022-10-06T18:55:03.645Z,73.84
2022-10-06T18:58:05.301Z,73.78
2022-10-06T19:01:07.677Z,73.17
2022-10-06T19:04:11.325Z,73.32
2022-10-06T19:07:12.983Z,73.43
2022-10-06T19:10:14.666Z,72.78
2022-10-06T19:13:16.457Z,72.41
2022-10-06T19:16:19.695Z,71.96
2022-10-06T19:19:22.177Z,72.09
2022-10-06T19:22:26.505Z,73.19
2022-10-06T19:25:28.380Z,77.30
2022-10-06T19:28:32.291Z,79.78
2022-10-06T19:31:37.982Z,81.56
2022-10-06T19:34:40.767Z,81.85
2022-10-06T19:37:42.856Z,82.35
2022-10-06T19:40:45.021Z,82.75
2022-10-06T19:43:46.778Z,82.40
2022-10-06T19:46:48.959Z,82.59
2022-10-06T19:49:52.269Z,82.22
2022-10-06T19:52:54.088Z,83.11
2022-10-06T19:56:01.385Z,82.81
2022-10-06T19:59:04.728Z,82.76
2022-10-06T20:02:08.703Z,82.20
2022-10-06T20:05:13.494Z,82.28
2022-10-06T20:08:15.164Z,82.49
2022-10-06T20:11:21.266Z,82.48
2022-10-06T20:14:24.385Z,82.55
2022-10-06T20:17:29.949Z,82.63
2022-10-06T20:20:31.993Z,82.88
2022-10-06T20:23:34.599Z,82.76
2022-10-06T20:26:40.553Z,82.48
2022-10-06T20:29:45.470Z,82.67
2022-10-06T20:32:47.134Z,81.84
2022-10-06T20:35:48.742Z,81.48
2022-10-06T20:39:09.042Z,80.89
2022-10-06T20:42:15.119Z,80.97
2022-10-06T20:45:17.188Z,80.77
2022-10-06T20:48:19.161Z,80.76
2022-10-06T20:51:27.770Z,80.47
2022-10-06T20:54:36.012Z,81.08
2022-10-06T20:57:38.860Z,80.96
2022-10-06T21:00:41.272Z,80.51
2022-10-06T21:03:46.535Z,80.83
2022-10-06T21:06:48.949Z,81.71
2022-10-06T21:09:52.305Z,81.16
2022-10-06T21:12:55.986Z,81.47
2022-10-06T21:15:59.057Z,81.71
2022-10-06T21:19:08.465Z,82.47
2022-10-06T21:22:10.886Z,82.54
2022-10-06T21:25:13.036Z,82.61
2022-10-06T21:28:14.929Z,82.36
2022-10-06T21:31:19.246Z,82.03
2022-10-06T21:34:21.464Z,81.76
2022-10-06T21:37:23.514Z,82.50
2022-10-06T21:40:25.405Z,82.17
2022-10-06T21:43:28.871Z,81.87
2022-10-06T21:46:43.009Z,82.04
2022-10-06T21:49:45.095Z,82.12
2022-10-06T21:52:46.977Z,82.16
2022-10-06T21:55:49.179Z,81.55
2022-10-06T21:58:53.328Z,80.95
2022-10-06T22:01:56.883Z,81.44
2022-10-06T22:04:59.212Z,83.63
2022-10-06T22:08:01.194Z,85.01
2022-10-06T22:11:13.672Z,85.90
2022-10-06T22:14:18.338Z,87.29
2022-10-06T22:17:20.190Z,88.92
2022-10-06T22:20:21.921Z,89.33
2022-10-06T22:23:23.956Z,89.59
2022-10-06T22:26:26.655Z,89.11
2022-10-06T22:29:28.772Z,88.54
2022-10-06T22:32:31.613Z,88.41
2022-10-06T22:35:33.433Z,88.78
2022-10-06T22:38:35.522Z,88.85
2022-10-06T22:41:37.804Z,89.03
2022-10-06T22:44:39.967Z,89.61
2022-10-06T22:47:42.288Z,90.24
2022-10-06T22:50:44.494Z,90.97
2022-10-06T22:53:47.176Z,91.28
2022-10-06T22:56:49.248Z,91.14
2022-10-06T22:59:51.917Z,89.86
2022-10-06T23:02:54.858Z,90.10
2022-10-06T23:05:59.468Z,90.06
2022-10-06T23:09:03.935Z,89.94
2022-10-06T23:12:05.981Z,89.58
2022-10-06T23:15:11.533Z,90.32
2022-10-06T23:18:13.965Z,91.45
2022-10-06T23:21:21.823Z,90.79
2022-10-06T23:24:24.162Z,89.71
2022-10-06T23:27:26.505Z,88.29
2022-10-06T23:30:28.453Z,88.08
2022-10-06T23:33:31.712Z,88.13
2022-10-06T23:36:35.253Z,89.27
2022-10-06T23:39:37.368Z,88.74
2022-10-06T23:42:39.423Z,87.62
2022-10-06T23:45:41.279Z,86.82
2022-10-06T23:48:43.502Z,86.46
2022-10-06T23:51:45.602Z,87.73
2022-10-06T23:54:48.101Z,87.88
2022-10-06T23:57:50.661Z,88.05
